Main page
METAR-TAF:

METAR-TAF

Airports :

London-Southend, England

London Southend Airport

latitude: 51-34N, longitude: 000-42E, elevation: 15 m

Current weather observation

The report was made 10 minutes ago, at 08:50 UTC
Wind 16 kt from the East
Temperature 12°C
Humidity 58%
Pressure 1004 hPa
Visibility 10 km or more
no clouds below 1500 m and no cumulonimbus

METAR: EGMC 300850Z 10016KT CAVOK 12/04 Q1004

Time: 10:00 (09:00 UTC)

Forecast

The report was made 1 hour and 1 minutes ago, at 07:59 UTC
Forecast valid from 30 at 09 UTC to 30 at 18 UTC
Wind 12 kt from the East/Southeast
Visibility 10 km or more
Few clouds at a height of 4800 ft
Temporary
from 30 at 09 UTC to 30 at 15 UTC
Wind 15 kt from the East/Southeast with gusts up to 25 kt
Becoming
from 30 at 15 UTC to 30 at 18 UTC
Wind 9 kt from the South
Probability 30% :
Temporary
from 30 at 17 UTC to 30 at 18 UTC
Visibility: 8000 m
light rain

TAF: EGMC 300759Z 3009/3018 11012KT 9999 FEW048 TEMPO 3009/3015 12015G25KT BECMG 3015/3018 17009KT PROB30 TEMPO 3017/3018 8000 -RA

Weather observations and forecasts of more than 4000 airports (METAR and TAF reports).

The available stations are represented by yellow and red dots on the map.

Hover mouse over dot to see the name of the station.

Then click to see weather observations and forecasts.

To change the map : click on the green buttons with a black cross to zoom in, on the green button with a dash to zoom out, or on the green arrows for adjacent maps.


METAR-TAF: